sensor_id;sensor_type;location;lat;lon;timestamp;P1;durP1;ratioP1;P2;durP2;ratioP2
2107;SDS011;1060;52.492;13.388;2023-06-22T00:18:58;15.97;;;12.57;;
2107;SDS011;1060;52.492;13.388;2023-06-22T00:21:36;12.47;;;11.67;;
2107;SDS011;1060;52.492;13.388;2023-06-22T00:24:22;17.73;;;12.70;;
2107;SDS011;1060;52.492;13.388;2023-06-22T00:27:15;13.13;;;11.73;;
2107;SDS011;1060;52.492;13.388;2023-06-22T01:15:51;16.00;;;14.50;;
2107;SDS011;1060;52.492;13.388;2023-06-22T01:18:22;17.37;;;15.90;;
2107;SDS011;1060;52.492;13.388;2023-06-22T01:20:54;15.87;;;14.70;;
2107;SDS011;1060;52.492;13.388;2023-06-22T01:37:07;17.47;;;15.90;;
2107;SDS011;1060;52.492;13.388;2023-06-22T01:39:33;17.57;;;15.77;;
2107;SDS011;1060;52.492;13.388;2023-06-22T01:42:03;20.67;;;18.80;;
2107;SDS011;1060;52.492;13.388;2023-06-22T01:44:30;18.47;;;16.97;;
2107;SDS011;1060;52.492;13.388;2023-06-22T01:46:57;18.23;;;16.73;;
2107;SDS011;1060;52.492;13.388;2023-06-22T01:49:30;19.20;;;17.63;;
2107;SDS011;1060;52.492;13.388;2023-06-22T01:51:56;18.83;;;17.30;;
2107;SDS011;1060;52.492;13.388;2023-06-22T01:54:23;19.27;;;17.47;;
2107;SDS011;1060;52.492;13.388;2023-06-22T01:56:52;19.50;;;17.90;;
2107;SDS011;1060;52.492;13.388;2023-06-22T01:59:30;17.33;;;15.80;;
2107;SDS011;1060;52.492;13.388;2023-06-22T02:02:03;17.40;;;16.00;;
2107;SDS011;1060;52.492;13.388;2023-06-22T02:04:51;21.17;;;18.80;;
2107;SDS011;1060;52.492;13.388;2023-06-22T02:07:31;18.17;;;16.63;;
2107;SDS011;1060;52.492;13.388;2023-06-22T02:10:01;21.00;;;19.10;;
2107;SDS011;1060;52.492;13.388;2023-06-22T02:12:36;19.23;;;17.73;;
2107;SDS011;1060;52.492;13.388;2023-06-22T02:15:16;18.57;;;17.17;;
2107;SDS011;1060;52.492;13.388;2023-06-22T02:17:53;21.30;;;19.67;;
2107;SDS011;1060;52.492;13.388;2023-06-22T02:20:26;18.73;;;16.87;;
2107;SDS011;1060;52.492;13.388;2023-06-22T02:23:05;19.87;;;18.17;;
2107;SDS011;1060;52.492;13.388;2023-06-22T02:25:52;18.27;;;16.87;;
2107;SDS011;1060;52.492;13.388;2023-06-22T02:28:23;19.63;;;18.03;;
2107;SDS011;1060;52.492;13.388;2023-06-22T02:30:52;17.23;;;15.93;;
2107;SDS011;1060;52.492;13.388;2023-06-22T02:33:27;20.03;;;18.23;;
2107;SDS011;1060;52.492;13.388;2023-06-22T02:36:23;19.53;;;18.03;;
2107;SDS011;1060;52.492;13.388;2023-06-22T02:39:07;18.87;;;17.37;;
2107;SDS011;1060;52.492;13.388;2023-06-22T02:41:36;19.03;;;17.53;;
2107;SDS011;1060;52.492;13.388;2023-06-22T02:44:05;19.13;;;17.33;;
2107;SDS011;1060;52.492;13.388;2023-06-22T02:46:32;19.27;;;17.57;;
2107;SDS011;1060;52.492;13.388;2023-06-22T02:49:01;21.43;;;19.57;;
2107;SDS011;1060;52.492;13.388;2023-06-22T02:51:27;20.70;;;19.03;;
2107;SDS011;1060;52.492;13.388;2023-06-22T02:54:06;23.23;;;21.03;;
2107;SDS011;1060;52.492;13.388;2023-06-22T02:56:41;21.47;;;19.67;;
2107;SDS011;1060;52.492;13.388;2023-06-22T02:59:14;21.90;;;20.00;;
2107;SDS011;1060;52.492;13.388;2023-06-22T03:01:44;20.60;;;18.63;;
2107;SDS011;1060;52.492;13.388;2023-06-22T03:04:31;21.83;;;19.73;;
2107;SDS011;1060;52.492;13.388;2023-06-22T03:07:08;19.87;;;18.27;;
2107;SDS011;1060;52.492;13.388;2023-06-22T03:09:39;19.57;;;17.70;;
2107;SDS011;1060;52.492;13.388;2023-06-22T03:12:09;19.00;;;17.60;;
2107;SDS011;1060;52.492;13.388;2023-06-22T03:15:05;19.23;;;17.50;;
2107;SDS011;1060;52.492;13.388;2023-06-22T03:17:45;19.07;;;17.40;;
2107;SDS011;1060;52.492;13.388;2023-06-22T03:20:22;18.63;;;17.23;;
2107;SDS011;1060;52.492;13.388;2023-06-22T03:23:18;18.93;;;17.37;;
2107;SDS011;1060;52.492;13.388;2023-06-22T03:25:56;18.57;;;17.17;;
2107;SDS011;1060;52.492;13.388;2023-06-22T03:28:32;17.30;;;15.80;;
2107;SDS011;1060;52.492;13.388;2023-06-22T03:31:16;19.90;;;15.57;;
2107;SDS011;1060;52.492;13.388;2023-06-22T03:33:52;14.93;;;13.73;;
2107;SDS011;1060;52.492;13.388;2023-06-22T03:36:18;14.87;;;13.67;;
2107;SDS011;1060;52.492;13.388;2023-06-22T03:38:47;14.67;;;13.47;;
2107;SDS011;1060;52.492;13.388;2023-06-22T03:41:16;13.73;;;12.50;;
2107;SDS011;1060;52.492;13.388;2023-06-22T03:43:45;12.83;;;11.83;;
2107;SDS011;1060;52.492;13.388;2023-06-22T03:46:15;14.83;;;13.53;;
2107;SDS011;1060;52.492;13.388;2023-06-22T03:48:42;13.47;;;12.47;;
2107;SDS011;1060;52.492;13.388;2023-06-22T03:51:08;11.77;;;10.77;;
2107;SDS011;1060;52.492;13.388;2023-06-22T03:53:35;11.90;;;10.97;;
2107;SDS011;1060;52.492;13.388;2023-06-22T03:56:10;11.70;;;10.90;;
2107;SDS011;1060;52.492;13.388;2023-06-22T03:58:40;13.90;;;12.57;;
2107;SDS011;1060;52.492;13.388;2023-06-22T04:01:11;11.60;;;10.60;;
2107;SDS011;1060;52.492;13.388;2023-06-22T04:03:38;13.00;;;11.70;;
2107;SDS011;1060;52.492;13.388;2023-06-22T04:06:12;13.60;;;12.27;;
2107;SDS011;1060;52.492;13.388;2023-06-22T04:08:39;13.93;;;12.83;;
2107;SDS011;1060;52.492;13.388;2023-06-22T04:11:07;12.63;;;11.43;;
2107;SDS011;1060;52.492;13.388;2023-06-22T04:13:50;11.40;;;10.50;;
2107;SDS011;1060;52.492;13.388;2023-06-22T04:16:16;11.67;;;10.77;;
2107;SDS011;1060;52.492;13.388;2023-06-22T04:18:42;12.27;;;10.87;;
2107;SDS011;1060;52.492;13.388;2023-06-22T04:21:12;10.60;;;9.70;;
2107;SDS011;1060;52.492;13.388;2023-06-22T04:23:42;9.60;;;8.80;;
2107;SDS011;1060;52.492;13.388;2023-06-22T04:26:12;10.50;;;9.60;;
2107;SDS011;1060;52.492;13.388;2023-06-22T04:28:39;12.90;;;7.90;;
2107;SDS011;1060;52.492;13.388;2023-06-22T04:31:06;7.93;;;7.37;;
2107;SDS011;1060;52.492;13.388;2023-06-22T04:33:32;7.97;;;7.37;;
2107;SDS011;1060;52.492;13.388;2023-06-22T04:36:01;8.83;;;8.07;;
2107;SDS011;1060;52.492;13.388;2023-06-22T04:38:36;9.03;;;8.33;;
2107;SDS011;1060;52.492;13.388;2023-06-22T04:41:03;8.30;;;7.60;;
2107;SDS011;1060;52.492;13.388;2023-06-22T04:43:39;8.20;;;7.50;;
2107;SDS011;1060;52.492;13.388;2023-06-22T04:46:08;9.77;;;8.97;;
2107;SDS011;1060;52.492;13.388;2023-06-22T04:51:19;8.83;;;8.03;;
2107;SDS011;1060;52.492;13.388;2023-06-22T04:54:09;9.93;;;9.20;;
2107;SDS011;1060;52.492;13.388;2023-06-22T04:56:44;8.60;;;7.90;;
2107;SDS011;1060;52.492;13.388;2023-06-22T05:01:46;8.50;;;7.70;;
2107;SDS011;1060;52.492;13.388;2023-06-22T05:04:12;9.77;;;8.83;;
2107;SDS011;1060;52.492;13.388;2023-06-22T05:06:41;8.27;;;7.03;;
2107;SDS011;1060;52.492;13.388;2023-06-22T05:09:07;7.17;;;6.53;;
2107;SDS011;1060;52.492;13.388;2023-06-22T05:11:34;7.47;;;6.80;;
2107;SDS011;1060;52.492;13.388;2023-06-22T05:14:00;7.47;;;6.80;;
2107;SDS011;1060;52.492;13.388;2023-06-22T05:16:27;7.37;;;6.77;;
2107;SDS011;1060;52.492;13.388;2023-06-22T05:18:58;7.50;;;6.73;;
2107;SDS011;1060;52.492;13.388;2023-06-22T05:21:30;7.47;;;6.87;;
2107;SDS011;1060;52.492;13.388;2023-06-22T05:24:06;8.43;;;7.80;;
2107;SDS011;1060;52.492;13.388;2023-06-22T05:26:33;7.73;;;7.03;;
2107;SDS011;1060;52.492;13.388;2023-06-22T05:32:22;8.47;;;7.80;;
2107;SDS011;1060;52.492;13.388;2023-06-22T11:44:23;4.27;;;3.97;;
2107;SDS011;1060;52.492;13.388;2023-06-22T12:47:40;5.70;;;4.70;;
2107;SDS011;1060;52.492;13.388;2023-06-22T12:50:24;5.73;;;5.07;;
2107;SDS011;1060;52.492;13.388;2023-06-22T12:52:50;5.00;;;4.60;;
2107;SDS011;1060;52.492;13.388;2023-06-22T12:55:16;5.00;;;4.70;;
2107;SDS011;1060;52.492;13.388;2023-06-22T12:57:43;5.33;;;4.93;;
2107;SDS011;1060;52.492;13.388;2023-06-22T13:00:09;6.27;;;5.87;;
2107;SDS011;1060;52.492;13.388;2023-06-22T13:13:25;5.67;;;5.17;;
2107;SDS011;1060;52.492;13.388;2023-06-22T13:15:57;6.40;;;5.03;;
2107;SDS011;1060;52.492;13.388;2023-06-22T13:18:23;5.20;;;4.80;;
2107;SDS011;1060;52.492;13.388;2023-06-22T13:21:03;6.80;;;6.20;;
2107;SDS011;1060;52.492;13.388;2023-06-22T13:23:33;5.90;;;5.40;;
2107;SDS011;1060;52.492;13.388;2023-06-22T13:25:59;5.93;;;5.43;;
2107;SDS011;1060;52.492;13.388;2023-06-22T13:28:26;6.00;;;5.37;;
2107;SDS011;1060;52.492;13.388;2023-06-22T13:31:37;7.83;;;7.13;;
2107;SDS011;1060;52.492;13.388;2023-06-22T13:33:49;5.97;;;5.47;;
2107;SDS011;1060;52.492;13.388;2023-06-22T13:36:17;6.10;;;5.60;;
2107;SDS011;1060;52.492;13.388;2023-06-22T13:38:47;6.70;;;6.10;;
2107;SDS011;1060;52.492;13.388;2023-06-22T13:41:22;7.90;;;7.20;;
2107;SDS011;1060;52.492;13.388;2023-06-22T13:43:49;6.27;;;5.70;;
2107;SDS011;1060;52.492;13.388;2023-06-22T13:46:25;5.80;;;5.30;;
2107;SDS011;1060;52.492;13.388;2023-06-22T13:48:54;7.43;;;6.83;;
2107;SDS011;1060;52.492;13.388;2023-06-22T13:51:21;6.40;;;5.90;;
2107;SDS011;1060;52.492;13.388;2023-06-22T13:53:47;5.33;;;5.00;;
2107;SDS011;1060;52.492;13.388;2023-06-22T13:56:13;5.57;;;5.17;;
2107;SDS011;1060;52.492;13.388;2023-06-22T13:58:42;6.43;;;5.93;;
2107;SDS011;1060;52.492;13.388;2023-06-22T14:01:09;5.30;;;4.90;;
2107;SDS011;1060;52.492;13.388;2023-06-22T14:03:37;6.40;;;5.90;;
2107;SDS011;1060;52.492;13.388;2023-06-22T14:06:04;6.27;;;5.70;;
2107;SDS011;1060;52.492;13.388;2023-06-22T14:08:31;7.13;;;6.47;;
2107;SDS011;1060;52.492;13.388;2023-06-22T14:11:03;6.37;;;5.77;;
2107;SDS011;1060;52.492;13.388;2023-06-22T14:13:32;6.63;;;6.13;;
2107;SDS011;1060;52.492;13.388;2023-06-22T14:16:01;5.80;;;5.40;;
2107;SDS011;1060;52.492;13.388;2023-06-22T14:18:35;6.13;;;5.63;;
2107;SDS011;1060;52.492;13.388;2023-06-22T14:21:05;5.97;;;5.57;;
2107;SDS011;1060;52.492;13.388;2023-06-22T14:23:35;6.13;;;5.57;;
2107;SDS011;1060;52.492;13.388;2023-06-22T14:26:17;6.00;;;5.50;;
2107;SDS011;1060;52.492;13.388;2023-06-22T14:28:48;6.10;;;5.60;;
2107;SDS011;1060;52.492;13.388;2023-06-22T14:31:18;5.57;;;5.17;;
2107;SDS011;1060;52.492;13.388;2023-06-22T14:33:56;6.47;;;5.80;;
2107;SDS011;1060;52.492;13.388;2023-06-22T14:36:26;5.83;;;4.93;;
2107;SDS011;1060;52.492;13.388;2023-06-22T14:38:52;6.90;;;5.53;;
2107;SDS011;1060;52.492;13.388;2023-06-22T14:41:19;6.40;;;5.83;;
2107;SDS011;1060;52.492;13.388;2023-06-22T14:43:50;6.53;;;5.83;;
2107;SDS011;1060;52.492;13.388;2023-06-22T14:46:19;5.90;;;4.93;;
2107;SDS011;1060;52.492;13.388;2023-06-22T14:48:46;5.47;;;5.07;;
2107;SDS011;1060;52.492;13.388;2023-06-22T14:51:18;5.37;;;4.83;;
2107;SDS011;1060;52.492;13.388;2023-06-22T14:53:45;6.50;;;4.73;;
2107;SDS011;1060;52.492;13.388;2023-06-22T14:56:11;5.30;;;4.90;;
2107;SDS011;1060;52.492;13.388;2023-06-22T14:58:50;5.50;;;5.00;;
2107;SDS011;1060;52.492;13.388;2023-06-22T15:01:17;7.20;;;6.03;;
2107;SDS011;1060;52.492;13.388;2023-06-22T15:03:50;5.67;;;5.27;;
2107;SDS011;1060;52.492;13.388;2023-06-22T15:06:16;6.87;;;6.20;;
2107;SDS011;1060;52.492;13.388;2023-06-22T15:08:42;6.73;;;6.13;;
2107;SDS011;1060;52.492;13.388;2023-06-22T15:14:51;6.87;;;6.47;;
2107;SDS011;1060;52.492;13.388;2023-06-22T15:17:23;6.23;;;5.73;;
2107;SDS011;1060;52.492;13.388;2023-06-22T15:19:57;6.80;;;6.20;;
2107;SDS011;1060;52.492;13.388;2023-06-22T15:22:33;6.83;;;6.20;;
2107;SDS011;1060;52.492;13.388;2023-06-22T15:25:10;6.20;;;5.80;;
2107;SDS011;1060;52.492;13.388;2023-06-22T15:27:37;6.57;;;6.07;;
2107;SDS011;1060;52.492;13.388;2023-06-22T15:30:03;6.90;;;6.37;;
2107;SDS011;1060;52.492;13.388;2023-06-22T15:32:30;5.67;;;5.27;;
2107;SDS011;1060;52.492;13.388;2023-06-22T15:35:03;5.80;;;5.40;;
2107;SDS011;1060;52.492;13.388;2023-06-22T15:37:32;8.23;;;6.30;;
2107;SDS011;1060;52.492;13.388;2023-06-22T15:40:01;5.63;;;5.13;;
2107;SDS011;1060;52.492;13.388;2023-06-22T15:42:35;6.53;;;5.93;;
2107;SDS011;1060;52.492;13.388;2023-06-22T15:45:01;6.43;;;5.83;;
2107;SDS011;1060;52.492;13.388;2023-06-22T15:47:27;7.43;;;6.73;;
2107;SDS011;1060;52.492;13.388;2023-06-22T15:49:54;6.40;;;5.83;;
2107;SDS011;1060;52.492;13.388;2023-06-22T15:52:20;5.70;;;5.30;;
2107;SDS011;1060;52.492;13.388;2023-06-22T15:54:52;6.77;;;5.80;;
2107;SDS011;1060;52.492;13.388;2023-06-22T15:57:23;7.03;;;6.17;;
2107;SDS011;1060;52.492;13.388;2023-06-22T15:59:51;7.23;;;6.63;;
2107;SDS011;1060;52.492;13.388;2023-06-22T16:02:20;5.87;;;5.47;;
2107;SDS011;1060;52.492;13.388;2023-06-22T16:04:55;6.23;;;5.83;;
2107;SDS011;1060;52.492;13.388;2023-06-22T16:07:21;6.27;;;5.77;;
2107;SDS011;1060;52.492;13.388;2023-06-22T16:09:47;6.30;;;5.80;;
2107;SDS011;1060;52.492;13.388;2023-06-22T16:12:14;6.83;;;6.20;;
2107;SDS011;1060;52.492;13.388;2023-06-22T16:14:40;6.30;;;5.80;;
2107;SDS011;1060;52.492;13.388;2023-06-22T16:17:09;7.53;;;6.83;;
2107;SDS011;1060;52.492;13.388;2023-06-22T16:19:35;7.40;;;6.80;;
2107;SDS011;1060;52.492;13.388;2023-06-22T16:22:01;6.63;;;6.07;;
2107;SDS011;1060;52.492;13.388;2023-06-22T16:24:30;7.07;;;6.40;;
2107;SDS011;1060;52.492;13.388;2023-06-22T16:27:00;5.23;;;4.80;;
2107;SDS011;1060;52.492;13.388;2023-06-22T16:29:29;6.30;;;5.80;;
2107;SDS011;1060;52.492;13.388;2023-06-22T16:31:57;7.10;;;6.60;;
2107;SDS011;1060;52.492;13.388;2023-06-22T16:34:23;7.10;;;6.60;;
2107;SDS011;1060;52.492;13.388;2023-06-22T16:36:49;6.10;;;5.60;;
2107;SDS011;1060;52.492;13.388;2023-06-22T16:39:16;6.77;;;6.27;;
2107;SDS011;1060;52.492;13.388;2023-06-22T16:41:42;9.07;;;8.27;;
2107;SDS011;1060;52.492;13.388;2023-06-22T16:44:10;9.13;;;8.30;;
2107;SDS011;1060;52.492;13.388;2023-06-22T16:46:36;8.17;;;7.57;;
2107;SDS011;1060;52.492;13.388;2023-06-22T16:49:04;7.50;;;6.90;;
2107;SDS011;1060;52.492;13.388;2023-06-22T16:51:30;6.40;;;6.00;;
2107;SDS011;1060;52.492;13.388;2023-06-22T16:53:59;7.03;;;6.43;;
2107;SDS011;1060;52.492;13.388;2023-06-22T16:56:26;8.23;;;7.50;;
2107;SDS011;1060;52.492;13.388;2023-06-22T16:58:52;7.53;;;6.87;;
2107;SDS011;1060;52.492;13.388;2023-06-22T17:01:48;7.27;;;6.53;;
2107;SDS011;1060;52.492;13.388;2023-06-22T17:04:21;7.03;;;6.53;;
2107;SDS011;1060;52.492;13.388;2023-06-22T17:06:48;7.30;;;6.87;;
2107;SDS011;1060;52.492;13.388;2023-06-22T17:09:18;7.00;;;6.40;;
2107;SDS011;1060;52.492;13.388;2023-06-22T17:22:32;6.10;;;5.70;;
2107;SDS011;1060;52.492;13.388;2023-06-22T17:25:05;7.23;;;6.63;;
2107;SDS011;1060;52.492;13.388;2023-06-22T17:27:33;6.47;;;5.97;;
2107;SDS011;1060;52.492;13.388;2023-06-22T17:30:10;7.43;;;6.60;;
2107;SDS011;1060;52.492;13.388;2023-06-22T17:32:46;7.27;;;6.67;;
2107;SDS011;1060;52.492;13.388;2023-06-22T17:35:12;7.50;;;6.80;;
2107;SDS011;1060;52.492;13.388;2023-06-22T17:37:55;8.60;;;8.00;;
2107;SDS011;1060;52.492;13.388;2023-06-22T17:40:23;7.67;;;7.07;;
2107;SDS011;1060;52.492;13.388;2023-06-22T17:43:01;7.53;;;6.97;;
2107;SDS011;1060;52.492;13.388;2023-06-22T17:45:32;6.10;;;5.60;;
2107;SDS011;1060;52.492;13.388;2023-06-22T17:48:05;8.13;;;7.43;;
2107;SDS011;1060;52.492;13.388;2023-06-22T17:50:34;6.60;;;5.90;;
2107;SDS011;1060;52.492;13.388;2023-06-22T17:53:05;7.17;;;6.67;;
2107;SDS011;1060;52.492;13.388;2023-06-22T17:55:34;6.50;;;6.00;;
2107;SDS011;1060;52.492;13.388;2023-06-22T17:58:00;8.90;;;6.87;;
2107;SDS011;1060;52.492;13.388;2023-06-22T18:00:27;6.40;;;5.87;;
2107;SDS011;1060;52.492;13.388;2023-06-22T18:02:54;7.70;;;6.03;;
2107;SDS011;1060;52.492;13.388;2023-06-22T18:05:30;6.57;;;6.17;;
2107;SDS011;1060;52.492;13.388;2023-06-22T18:07:57;7.50;;;6.90;;
2107;SDS011;1060;52.492;13.388;2023-06-22T18:10:26;7.07;;;6.57;;
2107;SDS011;1060;52.492;13.388;2023-06-22T18:12:53;7.00;;;6.50;;
2107;SDS011;1060;52.492;13.388;2023-06-22T18:15:22;6.70;;;6.20;;
2107;SDS011;1060;52.492;13.388;2023-06-22T18:17:52;6.60;;;6.10;;
2107;SDS011;1060;52.492;13.388;2023-06-22T18:20:19;7.20;;;6.60;;
2107;SDS011;1060;52.492;13.388;2023-06-22T18:22:46;7.40;;;6.20;;
2107;SDS011;1060;52.492;13.388;2023-06-22T18:25:12;8.03;;;7.43;;
2107;SDS011;1060;52.492;13.388;2023-06-22T18:27:42;7.60;;;6.70;;
2107;SDS011;1060;52.492;13.388;2023-06-22T18:32:51;8.63;;;7.73;;
2107;SDS011;1060;52.492;13.388;2023-06-22T18:35:20;13.43;;;6.77;;
2107;SDS011;1060;52.492;13.388;2023-06-22T18:37:46;8.47;;;7.87;;
2107;SDS011;1060;52.492;13.388;2023-06-22T18:40:14;7.87;;;7.30;;
2107;SDS011;1060;52.492;13.388;2023-06-22T18:42:45;8.30;;;7.67;;
2107;SDS011;1060;52.492;13.388;2023-06-22T18:45:21;8.43;;;7.73;;
2107;SDS011;1060;52.492;13.388;2023-06-22T19:55:33;8.50;;;7.90;;
2107;SDS011;1060;52.492;13.388;2023-06-22T20:42:14;16.40;;;12.03;;
2107;SDS011;1060;52.492;13.388;2023-06-22T20:44:45;37.43;;;19.50;;
2107;SDS011;1060;52.492;13.388;2023-06-22T20:47:18;30.02;;;26.85;;
2107;SDS011;1060;52.492;13.388;2023-06-22T20:50:09;26.47;;;22.23;;
2107;SDS011;1060;52.492;13.388;2023-06-22T20:53:06;22.40;;;17.80;;
2107;SDS011;1060;52.492;13.388;2023-06-22T20:55:33;21.03;;;18.67;;
2107;SDS011;1060;52.492;13.388;2023-06-22T20:58:38;24.40;;;22.20;;
2107;SDS011;1060;52.492;13.388;2023-06-22T21:01:16;31.67;;;28.80;;
2107;SDS011;1060;52.492;13.388;2023-06-22T21:12:38;30.27;;;25.70;;
2107;SDS011;1060;52.492;13.388;2023-06-22T21:27:18;26.03;;;23.63;;
2107;SDS011;1060;52.492;13.388;2023-06-22T21:30:21;24.97;;;22.90;;
2107;SDS011;1060;52.492;13.388;2023-06-22T21:32:59;25.07;;;23.07;;
2107;SDS011;1060;52.492;13.388;2023-06-22T21:51:19;80.27;;;45.17;;
2107;SDS011;1060;52.492;13.388;2023-06-22T21:54:39;67.40;;;40.33;;
2107;SDS011;1060;52.492;13.388;2023-06-22T21:56:52;40.10;;;35.93;;
2107;SDS011;1060;52.492;13.388;2023-06-22T22:02:25;38.90;;;35.50;;
2107;SDS011;1060;52.492;13.388;2023-06-22T22:04:59;40.60;;;36.53;;
2107;SDS011;1060;52.492;13.388;2023-06-22T22:07:46;38.70;;;34.87;;
2107;SDS011;1060;52.492;13.388;2023-06-22T22:10:34;40.67;;;36.57;;
2107;SDS011;1060;52.492;13.388;2023-06-22T22:13:02;41.03;;;37.33;;
2107;SDS011;1060;52.492;13.388;2023-06-22T22:18:43;38.37;;;35.13;;
2107;SDS011;1060;52.492;13.388;2023-06-22T22:21:22;11.10;;;10.00;;
2107;SDS011;1060;52.492;13.388;2023-06-22T22:23:49;0.60;;;0.60;;
2107;SDS011;1060;52.492;13.388;2023-06-22T22:26:18;0.70;;;0.70;;
2107;SDS011;1060;52.492;13.388;2023-06-22T22:31:46;0.70;;;0.60;;
2107;SDS011;1060;52.492;13.388;2023-06-22T22:34:14;2.13;;;2.03;;
2107;SDS011;1060;52.492;13.388;2023-06-22T22:37:05;0.83;;;0.80;;
2107;SDS011;1060;52.492;13.388;2023-06-22T22:39:54;2.03;;;1.93;;
2107;SDS011;1060;52.492;13.388;2023-06-22T22:42:31;1.13;;;1.13;;
2107;SDS011;1060;52.492;13.388;2023-06-22T22:45:27;33.87;;;31.00;;
2107;SDS011;1060;52.492;13.388;2023-06-22T22:47:58;34.43;;;31.57;;
2107;SDS011;1060;52.492;13.388;2023-06-22T22:50:40;36.23;;;33.20;;
2107;SDS011;1060;52.492;13.388;2023-06-22T22:53:15;38.27;;;35.07;;
2107;SDS011;1060;52.492;13.388;2023-06-22T22:55:55;37.43;;;34.37;;
2107;SDS011;1060;52.492;13.388;2023-06-22T22:58:22;38.70;;;34.70;;
2107;SDS011;1060;52.492;13.388;2023-06-22T23:00:51;34.90;;;31.77;;
2107;SDS011;1060;52.492;13.388;2023-06-22T23:03:20;34.03;;;30.93;;
2107;SDS011;1060;52.492;13.388;2023-06-22T23:05:46;35.80;;;32.90;;
2107;SDS011;1060;52.492;13.388;2023-06-22T23:08:16;34.67;;;31.67;;
2107;SDS011;1060;52.492;13.388;2023-06-22T23:10:42;36.20;;;32.90;;
2107;SDS011;1060;52.492;13.388;2023-06-22T23:13:11;33.70;;;30.90;;
2107;SDS011;1060;52.492;13.388;2023-06-22T23:15:48;29.10;;;26.30;;
2107;SDS011;1060;52.492;13.388;2023-06-22T23:18:27;36.47;;;32.70;;
2107;SDS011;1060;52.492;13.388;2023-06-22T23:21:11;31.20;;;28.17;;
2107;SDS011;1060;52.492;13.388;2023-06-22T23:23:40;31.03;;;28.03;;
2107;SDS011;1060;52.492;13.388;2023-06-22T23:26:12;26.53;;;24.30;;
2107;SDS011;1060;52.492;13.388;2023-06-22T23:28:50;31.07;;;28.07;;
2107;SDS011;1060;52.492;13.388;2023-06-22T23:31:46;28.50;;;26.03;;
2107;SDS011;1060;52.492;13.388;2023-06-22T23:35:07;29.67;;;26.70;;
2107;SDS011;1060;52.492;13.388;2023-06-22T23:37:11;25.50;;;23.17;;
2107;SDS011;1060;52.492;13.388;2023-06-22T23:39:41;25.70;;;22.90;;
2107;SDS011;1060;52.492;13.388;2023-06-22T23:42:11;25.53;;;23.50;;
2107;SDS011;1060;52.492;13.388;2023-06-22T23:44:40;27.70;;;25.43;;
2107;SDS011;1060;52.492;13.388;2023-06-22T23:47:23;26.03;;;23.87;;
2107;SDS011;1060;52.492;13.388;2023-06-22T23:49:54;26.97;;;24.50;;
2107;SDS011;1060;52.492;13.388;2023-06-22T23:52:24;29.00;;;26.20;;
2107;SDS011;1060;52.492;13.388;2023-06-22T23:55:01;26.87;;;24.47;;
2107;SDS011;1060;52.492;13.388;2023-06-22T23:57:41;27.03;;;24.73;;
